Jaborandi, Brazil
Current Conditions -  °F | °C
As of 10:00 AM on Friday 24 Oct 2014 (Local Time) from SBMK Reporting Station
Clear Clear  
Wind Chill: 81°   Ceiling: Unl
Heat Index: 81°   Visibility: 6mi
Dew Point: 57°   Wind: 8mph
Humidity: 45%   Direction: 50°NE
Pressure: 30.09"   Gusts: NA
Location:  13.62°S, 44.43°W
Report Text: SBMK 241300Z 05007KT 010V120 CAVOK 27/14 Q1019
Loading
Personal Weather Stations






























Interactive Weather Map
Tropical Storm Tracking
New forecast layout! Learn more

10-Day Weather Forecast

Advertisements
Track Severe Weather on mobile